createdAt,value
2017-12-10T05:31:39.911Z,-10.64
2017-12-10T07:25:24.631Z,-6.95
2017-12-10T07:35:49.935Z,-3.34
2017-12-10T07:38:18.652Z,-2.95
2017-12-10T07:40:46.450Z,-2.68
2017-12-10T07:43:14.257Z,-1.41
2017-12-10T07:45:42.067Z,-0.84
2017-12-10T08:07:27.891Z,1.30
2017-12-10T08:23:39.316Z,-4.47
2017-12-10T08:37:10.972Z,-2.91
2017-12-10T08:41:10.106Z,-2.90
2017-12-10T08:43:45.262Z,-2.58
2017-12-10T08:49:15.955Z,-2.18
2017-12-10T08:51:49.118Z,-2.54
2017-12-10T08:54:45.733Z,-2.57
2017-12-10T08:57:18.248Z,-2.66
2017-12-10T09:00:03.440Z,-3.45
2017-12-10T09:02:31.285Z,-3.36
2017-12-10T09:05:00.024Z,-3.48
2017-12-10T09:07:31.281Z,-3.34
2017-12-10T09:10:01.676Z,-1.99
2017-12-10T09:13:55.031Z,-3.63
2017-12-10T09:16:25.262Z,-2.09
2017-12-10T09:18:53.036Z,-2.13
2017-12-10T09:21:23.720Z,-3.01
2017-12-10T09:23:53.409Z,-3.34
2017-12-10T09:26:23.582Z,-2.60
2017-12-10T09:28:52.598Z,-2.25
2017-12-10T09:31:22.270Z,-1.76
2017-12-10T09:33:51.078Z,-2.34
2017-12-10T09:36:18.902Z,-2.22
2017-12-10T09:38:46.679Z,-2.62
2017-12-10T09:41:14.545Z,-1.18
2017-12-10T09:43:42.397Z,-0.71
2017-12-10T09:46:11.128Z,-0.19
2017-12-10T09:48:39.529Z,-2.21
2017-12-10T09:51:07.342Z,-2.75
2017-12-10T09:53:35.124Z,-2.46
2017-12-10T09:56:02.996Z,-2.59
2017-12-10T09:58:31.838Z,-1.07
2017-12-10T10:00:59.635Z,-1.47
2017-12-10T10:03:27.519Z,-3.25
2017-12-10T10:05:55.281Z,-2.24
2017-12-10T10:08:23.013Z,-1.30
2017-12-10T10:10:50.789Z,-2.32
2017-12-10T10:13:18.533Z,-2.06
2017-12-10T10:15:46.362Z,-1.02
2017-12-10T10:18:14.157Z,-1.01
2017-12-10T10:20:42.069Z,-1.22
2017-12-10T10:23:09.904Z,-0.56
2017-12-10T10:25:38.281Z,-0.93
2017-12-10T10:28:06.083Z,-1.38
2017-12-10T10:30:33.860Z,-1.40
2017-12-10T10:33:01.588Z,-1.13
2017-12-10T10:35:29.430Z,-1.95
2017-12-10T10:37:57.298Z,-1.62
2017-12-10T10:40:26.288Z,-1.14
2017-12-10T10:42:54.024Z,-1.12
2017-12-10T10:45:21.833Z,-2.11
2017-12-10T10:47:49.556Z,-1.96
2017-12-10T10:50:17.369Z,-2.26
2017-12-10T10:52:45.108Z,-1.43
2017-12-10T10:55:12.898Z,-0.98
2017-12-10T10:57:40.729Z,-1.71
2017-12-10T11:00:08.591Z,-2.13
2017-12-10T11:02:37.080Z,-2.94
2017-12-10T11:05:04.914Z,-2.12
2017-12-10T11:07:32.722Z,-2.21
2017-12-10T11:10:00.570Z,-2.60
2017-12-10T11:12:28.313Z,-1.76
2017-12-10T11:14:56.142Z,-1.73
2017-12-10T11:17:24.009Z,-1.78
2017-12-10T11:19:51.831Z,-1.57
2017-12-10T11:22:19.865Z,-1.70
2017-12-10T11:24:47.671Z,-2.96
2017-12-10T11:27:15.624Z,-1.97
2017-12-10T11:29:43.442Z,-2.33
2017-12-10T11:32:11.295Z,-3.04
2017-12-10T11:34:39.107Z,-3.10
2017-12-10T11:37:06.866Z,-2.89
2017-12-10T11:39:34.685Z,-3.68
2017-12-10T11:42:02.490Z,-3.02
2017-12-10T11:44:30.277Z,-2.32
2017-12-10T11:46:58.704Z,-2.93
2017-12-10T11:49:26.522Z,-2.36
2017-12-10T11:51:54.439Z,-2.66
2017-12-10T11:54:22.228Z,-3.48
2017-12-10T11:56:50.050Z,-3.49
2017-12-10T11:59:17.872Z,-2.85
2017-12-10T12:01:45.693Z,-2.49
2017-12-10T12:04:13.565Z,-2.05
2017-12-10T12:06:41.437Z,-2.53
2017-12-10T12:09:10.144Z,-2.57
2017-12-10T12:11:37.966Z,-2.85
2017-12-10T12:14:05.973Z,-2.77
2017-12-10T12:16:33.740Z,-2.62
2017-12-10T12:19:01.541Z,-2.63
2017-12-10T12:21:29.336Z,-3.21
2017-12-10T12:23:57.152Z,-2.74
2017-12-10T12:26:24.987Z,-2.49
2017-12-10T12:28:53.002Z,-2.36
2017-12-10T12:31:20.752Z,-2.25
2017-12-10T12:33:48.544Z,-2.60
2017-12-10T12:36:16.487Z,-2.07
2017-12-10T12:38:44.476Z,-2.36
2017-12-10T12:41:12.367Z,-2.26
2017-12-10T12:43:40.138Z,-2.33
2017-12-10T12:46:08.969Z,-2.65
2017-12-10T12:48:36.842Z,-2.46
2017-12-10T12:51:04.682Z,-2.60
2017-12-10T12:53:32.545Z,-2.78
2017-12-10T12:56:00.360Z,-2.77
2017-12-10T12:58:28.115Z,-3.13
2017-12-10T13:00:57.445Z,-2.69
2017-12-10T13:03:25.291Z,-2.43
2017-12-10T13:05:53.066Z,-2.78
2017-12-10T13:08:20.903Z,-2.63
2017-12-10T13:10:49.481Z,-2.43
2017-12-10T13:13:17.337Z,-2.30
2017-12-10T13:15:45.596Z,-1.99
2017-12-10T13:18:13.333Z,-1.99
2017-12-10T13:20:41.134Z,-2.15
2017-12-10T13:23:08.942Z,-2.32
2017-12-10T13:25:36.745Z,-2.32
2017-12-10T13:28:04.578Z,-2.14
2017-12-10T13:30:32.398Z,-1.99
2017-12-10T13:33:00.245Z,-2.25
2017-12-10T13:35:28.011Z,-2.39
2017-12-10T13:37:55.907Z,-3.00
2017-12-10T13:40:24.504Z,-3.00
2017-12-10T13:42:52.392Z,-2.99
2017-12-10T13:45:20.242Z,-2.93
2017-12-10T13:47:48.168Z,-2.99
2017-12-10T13:50:15.946Z,-2.74
2017-12-10T13:52:43.878Z,-2.82
2017-12-10T13:55:11.656Z,-2.95
2017-12-10T13:57:39.511Z,-2.92
2017-12-10T14:00:07.412Z,-2.85
2017-12-10T14:02:35.249Z,-2.65
2017-12-10T14:05:03.243Z,-2.64
2017-12-10T14:07:31.028Z,-2.63
2017-12-10T14:09:58.927Z,-2.99
2017-12-10T14:12:26.723Z,-3.10
2017-12-10T14:14:54.608Z,-2.95
2017-12-10T14:17:22.473Z,-3.01
2017-12-10T14:19:50.957Z,-3.24
2017-12-10T14:22:18.781Z,-3.09
2017-12-10T14:24:46.628Z,-2.92
2017-12-10T14:27:14.526Z,-3.02
2017-12-10T14:29:43.558Z,-3.17
2017-12-10T14:32:12.741Z,-3.08
2017-12-10T14:34:40.634Z,-3.08
2017-12-10T14:37:08.409Z,-3.18
2017-12-10T14:39:36.352Z,-3.07
2017-12-10T14:42:04.253Z,-3.06
2017-12-10T14:44:32.039Z,-2.92
2017-12-10T14:46:59.940Z,-2.86
2017-12-10T14:49:28.377Z,-2.80
2017-12-10T14:51:56.632Z,-2.77
2017-12-10T14:54:24.477Z,-2.97
2017-12-10T14:56:52.374Z,-2.92
2017-12-10T14:59:20.987Z,-3.03
2017-12-10T15:01:48.850Z,-2.82
2017-12-10T15:04:16.628Z,-2.83
2017-12-10T15:06:45.750Z,-2.79
2017-12-10T15:09:14.264Z,-2.81
2017-12-10T15:11:42.970Z,-2.82
2017-12-10T15:14:10.908Z,-2.86
2017-12-10T15:16:38.847Z,-2.88
2017-12-10T15:19:06.586Z,-2.74
2017-12-10T15:21:34.457Z,-2.71
2017-12-10T15:24:02.259Z,-2.51
2017-12-10T15:26:30.033Z,-2.60
2017-12-10T15:28:57.844Z,-2.70
2017-12-10T15:31:25.830Z,-2.71
2017-12-10T15:33:53.768Z,-2.68
2017-12-10T15:36:21.618Z,-2.65
2017-12-10T15:38:49.536Z,-2.55
2017-12-10T15:41:17.376Z,-2.69
2017-12-10T15:43:45.272Z,-2.81
2017-12-10T15:46:13.458Z,-2.84
2017-12-10T15:48:42.158Z,-2.77
2017-12-10T15:51:10.111Z,-2.69
2017-12-10T15:53:38.006Z,-2.59
2017-12-10T15:56:07.117Z,-2.59
2017-12-10T15:58:35.069Z,-2.57
2017-12-10T16:01:04.554Z,-2.51
2017-12-10T16:03:32.380Z,-2.63
2017-12-10T16:06:00.280Z,-2.69
2017-12-10T16:08:28.065Z,-2.48
2017-12-10T16:10:56.748Z,-2.64
2017-12-10T16:13:24.595Z,-2.67
2017-12-10T16:15:52.392Z,-2.82
2017-12-10T16:18:21.163Z,-2.74
2017-12-10T16:20:49.928Z,-2.78
2017-12-10T16:23:17.879Z,-2.95
2017-12-10T16:25:45.708Z,-2.97
2017-12-10T16:28:13.556Z,-2.90
2017-12-10T16:30:41.390Z,-2.83
2017-12-10T16:33:09.397Z,-2.80
2017-12-10T16:35:37.264Z,-2.75
2017-12-10T16:38:05.161Z,-2.74
2017-12-10T16:40:32.977Z,-2.76
2017-12-10T16:43:00.899Z,-2.67
2017-12-10T16:45:28.810Z,-2.64
2017-12-10T16:47:56.575Z,-2.64
2017-12-10T16:50:24.442Z,-2.57
2017-12-10T16:52:52.361Z,-2.54
2017-12-10T16:55:20.265Z,-2.51
2017-12-10T16:57:48.146Z,-2.51
2017-12-10T17:00:16.844Z,-2.66
2017-12-10T17:02:45.626Z,-2.50
2017-12-10T17:05:15.299Z,-2.43
2017-12-10T17:07:43.345Z,-2.25
2017-12-10T17:10:11.149Z,-2.50
2017-12-10T17:12:39.008Z,-2.38
2017-12-10T17:15:06.944Z,-2.36
2017-12-10T17:17:34.900Z,-2.34
2017-12-10T17:20:03.516Z,-2.24
2017-12-10T17:22:31.318Z,-2.18
2017-12-10T17:24:59.339Z,-2.12
2017-12-10T17:27:27.292Z,-2.04
2017-12-10T17:29:55.925Z,-1.99
2017-12-10T17:32:23.852Z,-2.00
2017-12-10T17:34:51.665Z,-2.04
2017-12-10T17:37:19.726Z,-2.09
2017-12-10T17:39:47.638Z,-2.08
2017-12-10T17:42:15.771Z,-2.19
2017-12-10T17:44:43.699Z,-2.21
2017-12-10T17:47:11.716Z,-2.29
2017-12-10T17:49:39.524Z,-2.30
2017-12-10T17:52:07.451Z,-2.22
2017-12-10T17:54:35.270Z,-2.24
2017-12-10T17:57:03.933Z,-2.24
2017-12-10T17:59:32.912Z,-2.26
2017-12-10T18:02:00.822Z,-2.32
2017-12-10T18:04:28.819Z,-2.40
2017-12-10T18:06:56.806Z,-2.42
2017-12-10T18:09:24.642Z,-2.38
2017-12-10T18:11:54.964Z,-2.41
2017-12-10T18:14:22.987Z,-2.48
2017-12-10T18:16:50.949Z,-2.47
2017-12-10T18:19:20.033Z,-2.53
2017-12-10T18:21:47.986Z,-2.52
2017-12-10T18:24:15.847Z,-2.51
2017-12-10T18:26:43.644Z,-2.44
2017-12-10T18:29:11.536Z,-2.45
2017-12-10T18:31:39.341Z,-2.39
2017-12-10T18:34:07.288Z,-2.37
2017-12-10T18:36:35.172Z,-2.30
2017-12-10T18:39:03.023Z,-2.25
2017-12-10T18:41:30.825Z,-2.23
2017-12-10T18:43:58.659Z,-2.19
2017-12-10T18:46:27.682Z,-2.16
2017-12-10T18:48:55.426Z,-2.17
2017-12-10T18:51:23.256Z,-2.13
2017-12-10T18:53:51.079Z,-2.07
2017-12-10T18:56:19.398Z,-2.19
2017-12-10T18:58:48.015Z,-2.29
2017-12-10T19:01:16.978Z,-2.40
2017-12-10T19:03:44.801Z,-2.35
2017-12-10T19:06:13.031Z,-2.34
2017-12-10T19:08:40.904Z,-2.38
2017-12-10T19:11:08.668Z,-2.39
2017-12-10T19:13:36.489Z,-2.40
2017-12-10T19:16:04.450Z,-2.41
2017-12-10T19:18:32.314Z,-2.36
2017-12-10T19:21:00.191Z,-2.36
2017-12-10T19:23:27.966Z,-2.58
2017-12-10T19:25:55.811Z,-2.50
2017-12-10T19:28:23.567Z,-2.47
2017-12-10T19:30:52.306Z,-2.50
2017-12-10T19:33:20.172Z,-2.74
2017-12-10T19:35:47.964Z,-2.67
2017-12-10T19:38:15.854Z,-2.46
2017-12-10T19:40:44.265Z,-2.54
2017-12-10T19:43:12.806Z,-2.60
2017-12-10T19:45:40.691Z,-2.61
2017-12-10T19:48:09.316Z,-2.50
2017-12-10T19:50:37.160Z,-2.54
2017-12-10T19:53:05.019Z,-2.44
2017-12-10T19:55:32.791Z,-2.44
2017-12-10T19:58:01.430Z,-2.44
2017-12-10T20:00:30.294Z,-2.38
2017-12-10T20:02:58.118Z,-2.55
2017-12-10T20:05:25.895Z,-2.55
2017-12-10T20:07:53.686Z,-2.61
2017-12-10T20:10:21.534Z,-2.60
2017-12-10T20:12:49.420Z,-2.52
2017-12-10T20:15:17.245Z,-2.43
2017-12-10T20:17:45.108Z,-2.36
2017-12-10T20:20:12.950Z,-2.35
2017-12-10T20:22:40.789Z,-2.32
2017-12-10T20:25:08.639Z,-2.52
2017-12-10T20:27:36.519Z,-2.57
2017-12-10T20:30:04.416Z,-2.55
2017-12-10T20:32:32.388Z,-2.47
2017-12-10T20:35:00.375Z,-2.50
2017-12-10T20:37:28.285Z,-2.55
2017-12-10T20:39:56.208Z,-2.45
2017-12-10T20:42:24.084Z,-2.47
2017-12-10T20:44:51.937Z,-2.42
2017-12-10T20:47:19.927Z,-2.33
2017-12-10T20:49:47.777Z,-2.40
2017-12-10T20:52:17.228Z,-2.38
2017-12-10T20:54:45.090Z,-2.38
2017-12-10T20:57:13.001Z,-2.34
2017-12-10T20:59:40.800Z,-2.37
2017-12-10T21:02:08.602Z,-2.32
2017-12-10T21:04:36.414Z,-2.50
2017-12-10T21:07:04.183Z,-2.47
2017-12-10T21:09:32.016Z,-2.44
2017-12-10T21:12:00.087Z,-2.38
2017-12-10T21:14:27.901Z,-2.24
2017-12-10T21:16:55.730Z,-2.39
2017-12-10T21:19:23.571Z,-2.34
2017-12-10T21:21:51.341Z,-2.25
2017-12-10T21:24:20.454Z,-2.13
2017-12-10T21:26:48.276Z,-2.19
2017-12-10T21:29:16.102Z,-2.27
2017-12-10T21:31:44.674Z,-2.05
2017-12-10T21:34:12.612Z,-2.20
2017-12-10T21:36:40.398Z,-2.39
2017-12-10T21:39:08.292Z,-2.38
2017-12-10T21:41:36.105Z,-2.32
2017-12-10T21:44:03.907Z,-2.33
2017-12-10T21:46:31.704Z,-2.40
2017-12-10T21:48:59.532Z,-2.42
2017-12-10T21:51:27.340Z,-2.34
2017-12-10T21:53:55.055Z,-2.28
2017-12-10T21:56:22.837Z,-2.45
2017-12-10T21:58:50.591Z,-2.42
2017-12-10T22:01:18.407Z,-2.50
2017-12-10T22:03:46.190Z,-2.40
2017-12-10T22:06:13.973Z,-2.35
2017-12-10T22:08:41.781Z,-2.30
2017-12-10T22:11:09.581Z,-2.21
2017-12-10T22:13:37.347Z,-2.11
2017-12-10T22:16:05.231Z,-2.14
2017-12-10T22:18:33.042Z,-2.10
2017-12-10T22:21:01.231Z,-2.05
2017-12-10T22:23:29.022Z,-2.07
2017-12-10T22:25:56.770Z,-2.05
2017-12-10T22:28:24.607Z,-2.23
2017-12-10T22:30:52.343Z,-2.18
2017-12-10T22:33:20.179Z,-2.27
2017-12-10T22:35:47.981Z,-2.24
2017-12-10T22:38:15.740Z,-2.18
2017-12-10T22:40:43.590Z,-2.12
2017-12-10T22:43:11.352Z,-2.05
2017-12-10T22:45:39.059Z,-2.07
2017-12-10T22:50:40.793Z,-2.04
2017-12-10T22:53:08.534Z,-2.08
2017-12-10T22:55:36.272Z,-2.13
2017-12-10T22:58:03.988Z,-2.12
2017-12-10T23:00:31.736Z,-2.10
2017-12-10T23:02:59.537Z,-2.07
2017-12-10T23:05:27.339Z,-2.19
2017-12-10T23:07:55.131Z,-2.17
2017-12-10T23:10:22.842Z,-2.17
2017-12-10T23:12:50.592Z,-2.14
2017-12-10T23:15:18.396Z,-2.07
2017-12-10T23:17:46.152Z,-2.15
2017-12-10T23:20:14.005Z,-2.11
2017-12-10T23:22:41.797Z,-2.13
2017-12-10T23:25:09.634Z,-2.10
2017-12-10T23:27:37.465Z,-1.90
2017-12-10T23:30:05.227Z,-2.04
2017-12-10T23:32:33.250Z,-2.00
2017-12-10T23:35:01.054Z,-2.01
2017-12-10T23:37:28.772Z,-2.08
2017-12-10T23:39:56.603Z,-2.16
2017-12-10T23:42:24.375Z,-2.12
2017-12-10T23:44:52.168Z,-2.15
2017-12-10T23:47:19.996Z,-2.08
2017-12-10T23:49:47.789Z,-2.03
2017-12-10T23:52:15.523Z,-2.08
2017-12-10T23:54:43.260Z,-2.02
2017-12-10T23:57:11.021Z,-1.96
2017-12-10T23:59:38.731Z,-1.93
